sensor_id;sensor_type;location;lat;lon;timestamp;temperature;humidity
1888;DHT22;944;51.574;6.980;2023-02-23T00:01:33;9.00;99.90
1888;DHT22;944;51.574;6.980;2023-02-23T00:04:00;9.00;99.90
1888;DHT22;944;51.574;6.980;2023-02-23T00:06:28;9.10;99.90
1888;DHT22;944;51.574;6.980;2023-02-23T00:08:56;9.00;99.90
1888;DHT22;944;51.574;6.980;2023-02-23T00:11:27;9.10;99.90
1888;DHT22;944;51.574;6.980;2023-02-23T00:13:54;9.00;99.90
1888;DHT22;944;51.574;6.980;2023-02-23T00:16:23;9.00;99.90
1888;DHT22;944;51.574;6.980;2023-02-23T00:18:52;9.00;99.90
1888;DHT22;944;51.574;6.980;2023-02-23T00:21:22;9.10;99.90
1888;DHT22;944;51.574;6.980;2023-02-23T00:23:52;8.90;99.90
1888;DHT22;944;51.574;6.980;2023-02-23T00:26:23;8.90;99.90
1888;DHT22;944;51.574;6.980;2023-02-23T00:28:56;8.90;99.90
1888;DHT22;944;51.574;6.980;2023-02-23T00:31:25;9.00;99.90
1888;DHT22;944;51.574;6.980;2023-02-23T00:33:54;8.80;99.90
1888;DHT22;944;51.574;6.980;2023-02-23T00:36:25;8.90;99.90
1888;DHT22;944;51.574;6.980;2023-02-23T00:38:55;8.90;99.90
1888;DHT22;944;51.574;6.980;2023-02-23T00:41:23;8.90;99.90
1888;DHT22;944;51.574;6.980;2023-02-23T00:43:53;9.00;99.90
1888;DHT22;944;51.574;6.980;2023-02-23T00:46:25;9.00;99.90
1888;DHT22;944;51.574;6.980;2023-02-23T00:48:54;9.00;99.90
1888;DHT22;944;51.574;6.980;2023-02-23T00:51:23;9.00;99.90
1888;DHT22;944;51.574;6.980;2023-02-23T00:53:53;9.00;99.90
1888;DHT22;944;51.574;6.980;2023-02-23T00:56:20;9.00;99.90
1888;DHT22;944;51.574;6.980;2023-02-23T00:58:47;9.00;99.90
1888;DHT22;944;51.574;6.980;2023-02-23T01:01:15;9.00;99.90
1888;DHT22;944;51.574;6.980;2023-02-23T01:03:44;9.00;99.90
1888;DHT22;944;51.574;6.980;2023-02-23T01:06:13;8.90;99.90
1888;DHT22;944;51.574;6.980;2023-02-23T01:08:43;9.00;99.90
1888;DHT22;944;51.574;6.980;2023-02-23T01:11:12;9.00;99.90
1888;DHT22;944;51.574;6.980;2023-02-23T01:13:42;8.90;99.90
1888;DHT22;944;51.574;6.980;2023-02-23T01:16:16;8.90;99.90
1888;DHT22;944;51.574;6.980;2023-02-23T01:18:46;8.90;99.90
1888;DHT22;944;51.574;6.980;2023-02-23T01:21:15;8.90;99.90
1888;DHT22;944;51.574;6.980;2023-02-23T01:23:43;8.90;99.90
1888;DHT22;944;51.574;6.980;2023-02-23T01:26:16;8.80;99.90
1888;DHT22;944;51.574;6.980;2023-02-23T01:28:47;8.80;99.90
1888;DHT22;944;51.574;6.980;2023-02-23T01:31:15;8.70;99.90
1888;DHT22;944;51.574;6.980;2023-02-23T01:33:42;8.60;99.90
1888;DHT22;944;51.574;6.980;2023-02-23T01:36:10;8.60;99.90
1888;DHT22;944;51.574;6.980;2023-02-23T01:38:38;8.60;99.90
1888;DHT22;944;51.574;6.980;2023-02-23T01:41:05;8.60;99.90
1888;DHT22;944;51.574;6.980;2023-02-23T01:43:33;8.60;99.90
1888;DHT22;944;51.574;6.980;2023-02-23T01:46:02;8.50;99.90
1888;DHT22;944;51.574;6.980;2023-02-23T01:48:33;8.50;99.90
1888;DHT22;944;51.574;6.980;2023-02-23T01:51:05;8.50;99.90
1888;DHT22;944;51.574;6.980;2023-02-23T01:53:37;8.50;99.90
1888;DHT22;944;51.574;6.980;2023-02-23T01:56:08;8.50;99.90
1888;DHT22;944;51.574;6.980;2023-02-23T01:58:38;8.60;99.90
1888;DHT22;944;51.574;6.980;2023-02-23T02:01:08;8.60;99.90
1888;DHT22;944;51.574;6.980;2023-02-23T02:03:39;8.50;99.90
1888;DHT22;944;51.574;6.980;2023-02-23T02:06:09;8.50;99.90
1888;DHT22;944;51.574;6.980;2023-02-23T02:08:44;8.60;99.90
1888;DHT22;944;51.574;6.980;2023-02-23T02:11:14;8.60;99.90
1888;DHT22;944;51.574;6.980;2023-02-23T02:13:58;8.50;99.90
1888;DHT22;944;51.574;6.980;2023-02-23T02:16:46;8.60;99.90
1888;DHT22;944;51.574;6.980;2023-02-23T02:19:43;8.50;99.90
1888;DHT22;944;51.574;6.980;2023-02-23T02:22:56;8.50;99.90
1888;DHT22;944;51.574;6.980;2023-02-23T02:25:52;8.60;99.90
1888;DHT22;944;51.574;6.980;2023-02-23T02:32:10;8.50;99.90
1888;DHT22;944;51.574;6.980;2023-02-23T02:38:14;8.50;99.90
1888;DHT22;944;51.574;6.980;2023-02-23T02:40:52;8.50;99.90
1888;DHT22;944;51.574;6.980;2023-02-23T02:43:33;8.50;99.90
1888;DHT22;944;51.574;6.980;2023-02-23T02:46:10;8.50;99.90
1888;DHT22;944;51.574;6.980;2023-02-23T02:48:47;8.40;99.90
1888;DHT22;944;51.574;6.980;2023-02-23T02:51:21;8.50;99.90
1888;DHT22;944;51.574;6.980;2023-02-23T02:53:58;8.50;99.90
1888;DHT22;944;51.574;6.980;2023-02-23T02:56:31;8.50;99.90
1888;DHT22;944;51.574;6.980;2023-02-23T02:59:06;8.50;99.90
1888;DHT22;944;51.574;6.980;2023-02-23T03:01:51;8.40;99.90
1888;DHT22;944;51.574;6.980;2023-02-23T03:04:35;8.50;99.90
1888;DHT22;944;51.574;6.980;2023-02-23T03:07:24;8.50;99.90
1888;DHT22;944;51.574;6.980;2023-02-23T03:10:14;8.50;99.90
1888;DHT22;944;51.574;6.980;2023-02-23T03:13:15;8.60;99.90
1888;DHT22;944;51.574;6.980;2023-02-23T03:16:11;8.40;99.90
1888;DHT22;944;51.574;6.980;2023-02-23T03:19:10;8.40;99.90
1888;DHT22;944;51.574;6.980;2023-02-23T03:22:04;8.40;99.90
1888;DHT22;944;51.574;6.980;2023-02-23T03:24:55;8.30;99.90
1888;DHT22;944;51.574;6.980;2023-02-23T03:27:50;8.40;99.90
1888;DHT22;944;51.574;6.980;2023-02-23T03:30:43;8.40;99.90
1888;DHT22;944;51.574;6.980;2023-02-23T03:33:38;8.30;99.90
1888;DHT22;944;51.574;6.980;2023-02-23T03:36:27;8.20;99.90
1888;DHT22;944;51.574;6.980;2023-02-23T03:39:19;8.30;99.90
1888;DHT22;944;51.574;6.980;2023-02-23T03:42:10;8.30;99.90
1888;DHT22;944;51.574;6.980;2023-02-23T03:45:03;8.30;99.90
1888;DHT22;944;51.574;6.980;2023-02-23T03:47:50;8.30;99.90
1888;DHT22;944;51.574;6.980;2023-02-23T03:50:39;8.30;99.90
1888;DHT22;944;51.574;6.980;2023-02-23T03:53:29;8.30;99.90
1888;DHT22;944;51.574;6.980;2023-02-23T03:56:17;8.20;99.90
1888;DHT22;944;51.574;6.980;2023-02-23T03:59:05;8.20;99.90
1888;DHT22;944;51.574;6.980;2023-02-23T04:01:53;8.20;99.90
1888;DHT22;944;51.574;6.980;2023-02-23T04:04:38;8.20;99.90
1888;DHT22;944;51.574;6.980;2023-02-23T04:07:30;8.20;99.90
1888;DHT22;944;51.574;6.980;2023-02-23T04:10:15;8.20;99.90
1888;DHT22;944;51.574;6.980;2023-02-23T04:13:03;8.20;99.90
1888;DHT22;944;51.574;6.980;2023-02-23T04:15:46;8.20;99.90
1888;DHT22;944;51.574;6.980;2023-02-23T04:18:16;8.30;99.90
1888;DHT22;944;51.574;6.980;2023-02-23T04:20:44;8.20;99.90
1888;DHT22;944;51.574;6.980;2023-02-23T04:23:11;8.20;99.90
1888;DHT22;944;51.574;6.980;2023-02-23T04:25:38;8.20;99.90
1888;DHT22;944;51.574;6.980;2023-02-23T04:28:05;8.20;99.90
1888;DHT22;944;51.574;6.980;2023-02-23T04:30:32;8.20;99.90
1888;DHT22;944;51.574;6.980;2023-02-23T04:32:59;8.20;99.90
1888;DHT22;944;51.574;6.980;2023-02-23T04:35:27;8.20;99.90
1888;DHT22;944;51.574;6.980;2023-02-23T04:37:56;8.10;99.90
1888;DHT22;944;51.574;6.980;2023-02-23T04:40:26;8.20;99.90
1888;DHT22;944;51.574;6.980;2023-02-23T04:42:56;8.20;99.90
1888;DHT22;944;51.574;6.980;2023-02-23T04:45:23;8.10;99.90
1888;DHT22;944;51.574;6.980;2023-02-23T04:47:51;8.10;99.90
1888;DHT22;944;51.574;6.980;2023-02-23T04:50:18;8.10;99.90
1888;DHT22;944;51.574;6.980;2023-02-23T04:52:47;8.10;99.90
1888;DHT22;944;51.574;6.980;2023-02-23T04:55:17;8.00;99.90
1888;DHT22;944;51.574;6.980;2023-02-23T04:57:46;8.00;99.90
1888;DHT22;944;51.574;6.980;2023-02-23T05:00:14;8.10;99.90
1888;DHT22;944;51.574;6.980;2023-02-23T05:02:44;8.00;99.90
1888;DHT22;944;51.574;6.980;2023-02-23T05:05:12;8.00;99.90
1888;DHT22;944;51.574;6.980;2023-02-23T05:07:41;8.00;99.90
1888;DHT22;944;51.574;6.980;2023-02-23T05:10:11;8.00;99.90
1888;DHT22;944;51.574;6.980;2023-02-23T05:12:38;8.00;99.90
1888;DHT22;944;51.574;6.980;2023-02-23T05:15:06;8.00;99.90
1888;DHT22;944;51.574;6.980;2023-02-23T05:17:37;8.00;99.90
1888;DHT22;944;51.574;6.980;2023-02-23T05:20:06;8.10;99.90
1888;DHT22;944;51.574;6.980;2023-02-23T05:22:33;8.10;99.90
1888;DHT22;944;51.574;6.980;2023-02-23T05:25:00;8.10;99.90
1888;DHT22;944;51.574;6.980;2023-02-23T05:27:30;8.00;99.90
1888;DHT22;944;51.574;6.980;2023-02-23T05:29:58;8.10;99.90
1888;DHT22;944;51.574;6.980;2023-02-23T05:32:28;8.10;99.90
1888;DHT22;944;51.574;6.980;2023-02-23T05:35:05;8.10;99.90
1888;DHT22;944;51.574;6.980;2023-02-23T05:37:33;8.10;99.90
1888;DHT22;944;51.574;6.980;2023-02-23T05:40:00;8.10;99.90
1888;DHT22;944;51.574;6.980;2023-02-23T05:42:29;8.00;99.90
1888;DHT22;944;51.574;6.980;2023-02-23T05:44:58;8.00;99.90
1888;DHT22;944;51.574;6.980;2023-02-23T05:47:25;8.00;99.90
1888;DHT22;944;51.574;6.980;2023-02-23T05:49:54;7.80;99.90
1888;DHT22;944;51.574;6.980;2023-02-23T05:52:21;8.00;99.90
1888;DHT22;944;51.574;6.980;2023-02-23T05:54:49;7.90;99.90
1888;DHT22;944;51.574;6.980;2023-02-23T05:57:19;8.00;99.90
1888;DHT22;944;51.574;6.980;2023-02-23T05:59:49;7.90;99.90
1888;DHT22;944;51.574;6.980;2023-02-23T06:02:17;8.00;99.90
1888;DHT22;944;51.574;6.980;2023-02-23T06:04:47;8.00;99.90
1888;DHT22;944;51.574;6.980;2023-02-23T06:07:14;8.00;99.90
1888;DHT22;944;51.574;6.980;2023-02-23T06:09:43;8.00;99.90
1888;DHT22;944;51.574;6.980;2023-02-23T06:12:13;8.10;99.90
1888;DHT22;944;51.574;6.980;2023-02-23T06:18:10;7.90;99.90
1888;DHT22;944;51.574;6.980;2023-02-23T06:43:55;7.90;99.90
1888;DHT22;944;51.574;6.980;2023-02-23T06:46:24;7.90;99.90
1888;DHT22;944;51.574;6.980;2023-02-23T06:52:33;7.90;99.90
1888;DHT22;944;51.574;6.980;2023-02-23T06:55:00;8.00;99.90
1888;DHT22;944;51.574;6.980;2023-02-23T06:57:29;7.80;99.90
1888;DHT22;944;51.574;6.980;2023-02-23T07:00:27;7.90;99.90
1888;DHT22;944;51.574;6.980;2023-02-23T07:02:58;7.80;99.90
1888;DHT22;944;51.574;6.980;2023-02-23T07:05:25;7.80;99.90
1888;DHT22;944;51.574;6.980;2023-02-23T07:11:34;7.80;99.90
1888;DHT22;944;51.574;6.980;2023-02-23T07:14:02;7.80;99.90
1888;DHT22;944;51.574;6.980;2023-02-23T07:16:31;7.70;99.90
1888;DHT22;944;51.574;6.980;2023-02-23T07:18:59;7.80;99.90
1888;DHT22;944;51.574;6.980;2023-02-23T07:21:34;8.00;99.90
1888;DHT22;944;51.574;6.980;2023-02-23T07:27:44;7.80;99.90
1888;DHT22;944;51.574;6.980;2023-02-23T07:30:13;7.70;99.90
1888;DHT22;944;51.574;6.980;2023-02-23T07:36:31;7.90;99.90
1888;DHT22;944;51.574;6.980;2023-02-23T07:43:08;7.70;99.90
1888;DHT22;944;51.574;6.980;2023-02-23T07:45:43;7.70;99.90
1888;DHT22;944;51.574;6.980;2023-02-23T07:48:11;7.60;99.90
1888;DHT22;944;51.574;6.980;2023-02-23T07:50:59;7.60;99.90
1888;DHT22;944;51.574;6.980;2023-02-23T07:53:43;7.60;99.90
1888;DHT22;944;51.574;6.980;2023-02-23T07:56:11;7.60;99.90
1888;DHT22;944;51.574;6.980;2023-02-23T07:59:05;7.60;99.90
1888;DHT22;944;51.574;6.980;2023-02-23T08:01:52;7.60;99.90
1888;DHT22;944;51.574;6.980;2023-02-23T08:09:30;7.60;99.90
1888;DHT22;944;51.574;6.980;2023-02-23T08:30:15;7.60;99.90
1888;DHT22;944;51.574;6.980;2023-02-23T08:32:53;7.60;99.90
1888;DHT22;944;51.574;6.980;2023-02-23T08:35:42;7.60;99.90
1888;DHT22;944;51.574;6.980;2023-02-23T10:49:54;8.00;99.90
1888;DHT22;944;51.574;6.980;2023-02-23T10:52:41;7.90;99.90
1888;DHT22;944;51.574;6.980;2023-02-23T10:55:31;7.90;99.90
1888;DHT22;944;51.574;6.980;2023-02-23T12:27:43;7.90;99.90
1888;DHT22;944;51.574;6.980;2023-02-23T16:38:19;7.80;99.90
1888;DHT22;944;51.574;6.980;2023-02-23T20:16:04;7.30;99.90
1888;DHT22;944;51.574;6.980;2023-02-23T20:18:51;7.20;99.90
1888;DHT22;944;51.574;6.980;2023-02-23T20:21:34;7.20;99.90
1888;DHT22;944;51.574;6.980;2023-02-23T20:24:47;6.90;99.90
1888;DHT22;944;51.574;6.980;2023-02-23T20:28:24;6.80;99.90
1888;DHT22;944;51.574;6.980;2023-02-23T21:05:02;5.80;99.90
1888;DHT22;944;51.574;6.980;2023-02-23T21:08:34;5.80;99.90
1888;DHT22;944;51.574;6.980;2023-02-23T21:11:39;5.80;99.90
1888;DHT22;944;51.574;6.980;2023-02-23T21:14:31;5.80;99.90
1888;DHT22;944;51.574;6.980;2023-02-23T21:17:20;5.70;99.90
1888;DHT22;944;51.574;6.980;2023-02-23T21:20:04;5.70;99.90
1888;DHT22;944;51.574;6.980;2023-02-23T21:23:08;5.60;99.90
1888;DHT22;944;51.574;6.980;2023-02-23T21:26:25;5.60;99.90
1888;DHT22;944;51.574;6.980;2023-02-23T21:36:09;5.60;99.90
1888;DHT22;944;51.574;6.980;2023-02-23T21:39:10;5.40;99.90
1888;DHT22;944;51.574;6.980;2023-02-23T21:41:39;5.80;99.90
1888;DHT22;944;51.574;6.980;2023-02-23T22:06:40;5.60;99.90
1888;DHT22;944;51.574;6.980;2023-02-23T22:09:50;5.60;99.90
1888;DHT22;944;51.574;6.980;2023-02-23T22:12:48;5.60;99.90
1888;DHT22;944;51.574;6.980;2023-02-23T22:15:35;5.50;99.90
1888;DHT22;944;51.574;6.980;2023-02-23T22:18:07;5.50;99.90
1888;DHT22;944;51.574;6.980;2023-02-23T22:20:39;5.50;99.90
1888;DHT22;944;51.574;6.980;2023-02-23T22:23:20;5.40;99.90
1888;DHT22;944;51.574;6.980;2023-02-23T22:26:06;5.50;99.90
1888;DHT22;944;51.574;6.980;2023-02-23T22:28:38;5.30;99.90
1888;DHT22;944;51.574;6.980;2023-02-23T22:31:09;5.20;99.90
1888;DHT22;944;51.574;6.980;2023-02-23T22:33:43;5.20;99.90
1888;DHT22;944;51.574;6.980;2023-02-23T22:39:50;5.20;99.90
1888;DHT22;944;51.574;6.980;2023-02-23T22:42:36;5.00;99.90
1888;DHT22;944;51.574;6.980;2023-02-23T22:45:10;5.10;99.90
1888;DHT22;944;51.574;6.980;2023-02-23T22:47:51;4.90;99.90
1888;DHT22;944;51.574;6.980;2023-02-23T22:54:20;4.90;99.90
1888;DHT22;944;51.574;6.980;2023-02-23T22:56:51;4.90;99.90
1888;DHT22;944;51.574;6.980;2023-02-23T22:59:25;4.90;99.90
1888;DHT22;944;51.574;6.980;2023-02-23T23:01:55;5.00;99.90
1888;DHT22;944;51.574;6.980;2023-02-23T23:04:31;5.00;99.90
1888;DHT22;944;51.574;6.980;2023-02-23T23:07:14;5.00;99.90
1888;DHT22;944;51.574;6.980;2023-02-23T23:09:49;5.00;99.90
1888;DHT22;944;51.574;6.980;2023-02-23T23:12:25;5.00;99.90
1888;DHT22;944;51.574;6.980;2023-02-23T23:14:57;5.00;99.90
1888;DHT22;944;51.574;6.980;2023-02-23T23:17:26;5.10;99.90
1888;DHT22;944;51.574;6.980;2023-02-23T23:19:57;5.10;99.90
1888;DHT22;944;51.574;6.980;2023-02-23T23:22:25;5.10;99.90
1888;DHT22;944;51.574;6.980;2023-02-23T23:24:55;5.00;99.90
1888;DHT22;944;51.574;6.980;2023-02-23T23:27:24;5.00;99.90
1888;DHT22;944;51.574;6.980;2023-02-23T23:30:00;4.90;99.90
1888;DHT22;944;51.574;6.980;2023-02-23T23:32:37;4.90;99.90
1888;DHT22;944;51.574;6.980;2023-02-23T23:35:06;4.90;99.90
1888;DHT22;944;51.574;6.980;2023-02-23T23:37:36;4.90;99.90
1888;DHT22;944;51.574;6.980;2023-02-23T23:40:07;4.80;99.90
1888;DHT22;944;51.574;6.980;2023-02-23T23:42:41;4.80;99.90
1888;DHT22;944;51.574;6.980;2023-02-23T23:45:17;4.80;99.90
1888;DHT22;944;51.574;6.980;2023-02-23T23:47:48;4.80;99.90
1888;DHT22;944;51.574;6.980;2023-02-23T23:50:16;4.60;99.90
1888;DHT22;944;51.574;6.980;2023-02-23T23:52:48;4.60;99.90
1888;DHT22;944;51.574;6.980;2023-02-23T23:55:16;4.60;99.90
1888;DHT22;944;51.574;6.980;2023-02-23T23:57:45;4.50;99.90
